Time;durP1;ratioP1;P1;durP2;ratioP2;P2;SDS_P1;SDS_P2;PMS_P1;PMS_P2;Temp;Humidity;BMP_temperature;BMP_pressure;BME280_temperature;BME280_humidity;BME280_pressure;Samples;Min_cycle;Max_cycle;Signal;HPM_P1;HPM_P2
2023/01/02 00:00:54;;;;;;;;;;;;;;;19.94;57.91;101133.69;5027993;28;4173;-63
2023/01/02 00:03:20;;;;;;;;;;;;;;;19.94;57.72;101127.94;5026916;28;4137;-63
2023/01/02 00:05:47;;;;;;;;;;;;;;;19.95;57.62;101132.31;5027190;28;4199;-63
2023/01/02 00:08:14;;;;;;;;;;;;;;;19.94;57.84;101113.56;5025657;28;4107;-62
2023/01/02 00:10:41;;;;;;;;;;;;;;;19.94;57.94;101107.81;5028132;28;5524;-62
2023/01/02 00:13:07;;;;;;;;;;;;;;;19.93;57.66;101112.09;5001117;28;4145;-64
2023/01/02 00:15:33;;;;;;;;;;;;;;;19.94;57.94;101099.19;5026613;28;4158;-63
2023/01/02 00:18:00;;;;;;;;;;;;;;;19.94;57.59;101102.06;5024972;28;4466;-63
2023/01/02 00:20:26;;;;;;;;;;;;;;;19.93;57.91;101094.84;5026236;28;4187;-63
2023/01/02 00:22:52;;;;;;;;;;;;;;;19.93;57.81;101094.84;5024388;28;4354;-63
2023/01/02 00:25:19;;;;;;;;;;;;;;;19.93;57.89;101094.06;5021224;28;4198;-63
2023/01/02 00:27:48;;;;;;;;;;;;;;;19.92;57.95;101099.09;5026244;28;5480;-63
2023/01/02 00:30:14;;;;;;;;;;;;;;;19.92;57.71;101109.84;5025408;28;4179;-63
2023/01/02 00:32:41;;;;;;;;;;;;;;;19.92;57.91;101104.84;5024068;28;4195;-62
2023/01/02 00:35:07;;;;;;;;;;;;;;;19.93;58.02;101099.81;5026018;28;4156;-62
2023/01/02 00:37:34;;;;;;;;;;;;;;;19.93;57.77;101100.59;5026749;28;4128;-63
2023/01/02 00:40:00;;;;;;;;;;;;;;;19.91;57.75;101100.47;5025144;28;4216;-63
2023/01/02 00:42:27;;;;;;;;;;;;;;;19.92;57.81;101098.34;5026395;28;4197;-63
2023/01/02 00:44:53;;;;;;;;;;;;;;;19.91;57.99;101086.13;5027147;28;4087;-63
2023/01/02 00:47:19;;;;;;;;;;;;;;;19.91;57.79;101089.00;5025656;28;4122;-63
2023/01/02 00:49:48;;;;;;;;;;;;;;;19.90;57.82;101081.75;5025956;28;5120;-63
2023/01/02 00:52:15;;;;;;;;;;;;;;;19.90;57.97;101093.22;5026384;28;4099;-63
2023/01/02 00:54:44;;;;;;;;;;;;;;;19.90;57.94;101090.34;5026346;28;4147;-62
2023/01/02 00:57:10;;;;;;;;;;;;;;;19.91;57.79;101094.75;5026118;28;4120;-63
2023/01/02 00:59:38;;;;;;;;;;;;;;;19.89;57.83;101094.63;5027021;28;4095;-63
2023/01/02 01:02:04;;;;;;;;;;;;;;;19.90;57.84;101083.88;5024939;28;4180;-63
2023/01/02 01:04:36;;;;;;;;;;;;;;;19.89;57.98;101074.50;5026238;28;4160;-63
2023/01/02 01:07:02;;;;;;;;;;;;;;;19.89;57.97;101077.38;5027136;28;4211;-63
2023/01/02 01:12:21;;;;;;;;;;;;;;;19.89;57.72;101086.00;5026683;28;4155;-62
2023/01/02 01:14:47;;;;;;;;;;;;;;;19.88;57.90;101076.66;5022504;28;4203;-62
2023/01/02 01:17:16;;;;;;;;;;;;;;;19.87;57.70;101068.66;5024746;28;5473;-63
2023/01/02 01:19:43;;;;;;;;;;;;;;;19.88;57.90;101067.25;5022862;28;4143;-64
2023/01/02 01:22:12;;;;;;;;;;;;;;;19.88;58.03;101061.50;5024836;28;4085;-64
2023/01/02 01:24:38;;;;;;;;;;;;;;;19.88;57.90;101047.91;5025747;28;5208;-64
2023/01/02 01:27:05;;;;;;;;;;;;;;;19.88;58.01;101047.91;5025772;28;4172;-63
2023/01/02 01:29:34;;;;;;;;;;;;;;;19.89;57.82;101051.53;5026647;28;3918;-63
2023/01/02 01:32:00;;;;;;;;;;;;;;;19.88;57.88;101044.28;5025090;28;5240;-63
2023/01/02 01:34:26;;;;;;;;;;;;;;;19.87;57.93;101037.03;5025903;28;5129;-63
2023/01/02 01:36:53;;;;;;;;;;;;;;;19.87;57.89;101045.66;5026308;28;4275;-63
2023/01/02 01:39:27;;;;;;;;;;;;;;;19.87;57.97;101037.03;5025268;28;4107;-65
2023/01/02 01:41:53;;;;;;;;;;;;;;;19.89;58.32;101040.03;5023850;28;5119;-65
2023/01/02 01:44:41;;;;;;;;;;;;;;;19.91;58.60;101034.38;5025482;28;4324;-65
2023/01/02 01:47:13;;;;;;;;;;;;;;;19.92;58.70;101030.13;5008243;28;4625;-64
2023/01/02 01:49:40;;;;;;;;;;;;;;;19.97;58.78;101019.56;5023901;28;4241;-64
2023/01/02 01:52:10;;;;;;;;;;;;;;;19.97;58.44;101020.31;5025073;28;5271;-63
2023/01/02 01:54:37;;;;;;;;;;;;;;;19.98;58.63;101013.19;5025095;28;4189;-64
2023/01/02 01:57:07;;;;;;;;;;;;;;;19.94;58.33;101010.09;5023391;28;4287;-64
2023/01/02 01:59:33;;;;;;;;;;;;;;;19.93;58.52;101008.63;5025400;28;4186;-63
2023/01/02 02:01:59;;;;;;;;;;;;;;;19.89;58.45;101005.53;4999882;28;4156;-63
2023/01/02 02:04:26;;;;;;;;;;;;;;;19.89;58.52;101002.66;5024853;28;5159;-64
2023/01/02 02:06:52;;;;;;;;;;;;;;;19.88;58.20;100998.28;5024985;28;4151;-65
2023/01/02 02:09:24;;;;;;;;;;;;;;;19.87;58.34;100994.69;5025573;28;4197;-63
2023/01/02 02:11:50;;;;;;;;;;;;;;;19.87;58.28;100991.06;5026054;28;4214;-63
2023/01/02 02:14:16;;;;;;;;;;;;;;;19.86;58.42;100980.97;5008780;28;3972;-64
2023/01/02 02:17:08;;;;;;;;;;;;;;;19.86;58.39;100981.69;5025188;28;5410;-64
2023/01/02 02:19:59;;;;;;;;;;;;;;;19.85;58.35;100962.97;4995803;28;4313;-63
2023/01/02 02:22:36;;;;;;;;;;;;;;;19.86;58.38;100957.97;5024692;28;4149;-63
2023/01/02 02:25:21;;;;;;;;;;;;;;;19.85;58.35;100962.22;5000343;28;4198;-64
2023/01/02 02:27:53;;;;;;;;;;;;;;;19.85;58.32;100950.72;5003381;28;4037;-63
2023/01/02 02:30:20;;;;;;;;;;;;;;;19.85;58.30;100957.22;5019245;28;5200;-63
2023/01/02 02:32:46;;;;;;;;;;;;;;;19.86;58.12;100952.22;5005537;28;4154;-64
2023/01/02 02:35:28;;;;;;;;;;;;;;;19.85;58.36;100944.97;5023960;28;5175;-64
2023/01/02 02:37:55;;;;;;;;;;;;;;;19.85;58.21;100945.72;4998733;28;4325;-64
2023/01/02 02:40:33;;;;;;;;;;;;;;;19.86;58.20;100949.34;5023013;28;4275;-64
2023/01/02 02:43:08;;;;;;;;;;;;;;;19.84;58.16;100950.00;4997852;28;5502;-64
2023/01/02 02:45:39;;;;;;;;;;;;;;;19.84;58.23;100937.75;5006443;28;4806;-64
2023/01/02 02:48:14;;;;;;;;;;;;;;;19.84;58.13;100937.75;4996759;28;4194;-65
2023/01/02 02:50:46;;;;;;;;;;;;;;;19.84;58.25;100943.50;5006668;28;4225;-64
2023/01/02 02:57:13;;;;;;;;;;;;;;;19.84;58.19;100926.25;5011274;28;4074;-64
2023/01/02 02:59:39;;;;;;;;;;;;;;;19.82;58.07;100932.66;4999808;28;4001;-64
2023/01/02 03:02:05;;;;;;;;;;;;;;;19.83;58.16;100930.50;5005630;28;5275;-65
2023/01/02 03:04:32;;;;;;;;;;;;;;;19.82;58.11;100918.28;5023515;28;4251;-64
2023/01/02 03:07:15;;;;;;;;;;;;;;;19.83;57.90;100907.53;5023297;28;4164;-64
2023/01/02 03:09:49;;;;;;;;;;;;;;;19.83;58.00;100907.53;4998277;28;4051;-64
2023/01/02 03:12:18;;;;;;;;;;;;;;;19.83;58.03;100907.53;4998551;28;4248;-64
2023/01/02 03:14:47;;;;;;;;;;;;;;;19.82;58.06;100914.66;5005591;28;4020;-63
2023/01/02 03:17:16;;;;;;;;;;;;;;;19.83;57.94;100913.25;4996167;28;4272;-64
2023/01/02 03:19:44;;;;;;;;;;;;;;;19.82;57.96;100915.41;5003052;28;4052;-64
2023/01/02 03:22:20;;;;;;;;;;;;;;;19.82;57.88;100900.28;4996128;28;4232;-64
2023/01/02 03:24:47;;;;;;;;;;;;;;;19.82;57.90;100911.78;4997774;28;5217;-64
2023/01/02 03:27:14;;;;;;;;;;;;;;;19.82;58.02;100903.91;5003115;28;4242;-64
2023/01/02 03:29:41;;;;;;;;;;;;;;;19.81;57.75;100911.06;4995835;28;4205;-63
2023/01/02 03:32:11;;;;;;;;;;;;;;;19.82;57.86;100908.91;5005288;28;6250;-64
2023/01/02 03:34:37;;;;;;;;;;;;;;;19.82;57.87;100906.03;5008377;28;4021;-64
2023/01/02 03:37:07;;;;;;;;;;;;;;;19.82;57.76;100906.03;5007010;28;4175;-64
2023/01/02 03:39:34;;;;;;;;;;;;;;;19.81;58.01;100911.06;5008418;28;5472;-64
2023/01/02 03:42:08;;;;;;;;;;;;;;;19.81;57.86;100907.41;4999876;28;4126;-69
2023/01/02 03:44:45;;;;;;;;;;;;;;;19.82;57.93;100900.28;4999828;28;4349;-64
2023/01/02 03:47:21;;;;;;;;;;;;;;;19.82;57.86;100906.78;4999555;28;4011;-64
2023/01/02 03:49:48;;;;;;;;;;;;;;;19.80;57.99;100908.81;5000180;28;4194;-64
2023/01/02 03:52:14;;;;;;;;;;;;;;;19.84;57.95;100898.25;5005446;28;4117;-63
2023/01/02 03:54:46;;;;;;;;;;;;;;;19.88;58.05;100898.47;5007760;28;5252;-63
2023/01/02 03:57:21;;;;;;;;;;;;;;;19.88;58.25;100897.72;5005998;28;4169;-64
2023/01/02 03:59:47;;;;;;;;;;;;;;;19.90;57.93;100897.06;5008404;28;5394;-63
2023/01/02 04:02:18;;;;;;;;;;;;;;;19.91;57.95;100893.56;5005571;28;4118;-64
2023/01/02 04:04:49;;;;;;;;;;;;;;;19.93;57.81;100899.41;5008814;28;5511;-62
2023/01/02 04:07:19;;;;;;;;;;;;;;;19.93;58.01;100893.66;4997072;28;4558;-62
2023/01/02 04:09:45;;;;;;;;;;;;;;;19.93;58.26;100882.16;5004997;28;5417;-63
2023/01/02 04:12:12;;;;;;;;;;;;;;;19.93;58.18;100887.91;5004069;28;4082;-63
2023/01/02 04:15:11;;;;;;;;;;;;;;;19.93;58.01;100890.78;4981858;28;4072;-64
2023/01/02 04:17:39;;;;;;;;;;;;;;;19.94;58.31;100892.25;4981526;28;4023;-64
2023/01/02 04:20:06;;;;;;;;;;;;;;;19.93;58.40;100885.03;5023782;28;4171;-63
2023/01/02 04:22:38;;;;;;;;;;;;;;;19.94;58.45;100888.66;5024648;28;5364;-64
2023/01/02 04:25:12;;;;;;;;;;;;;;;19.94;58.34;100888.66;5027985;28;4142;-64
2023/01/02 04:27:43;;;;;;;;;;;;;;;19.95;58.65;100879.41;5025161;28;4293;-64
2023/01/02 04:30:10;;;;;;;;;;;;;;;19.94;58.43;100877.16;5003812;28;5229;-63
2023/01/02 04:32:37;;;;;;;;;;;;;;;19.95;58.21;100878.63;5025727;28;5221;-64
2023/01/02 04:35:04;;;;;;;;;;;;;;;19.99;58.04;100879.56;5007789;28;4168;-67
2023/01/02 04:37:31;;;;;;;;;;;;;;;19.97;58.26;100875.84;5006136;28;5055;-66
2023/01/02 04:39:58;;;;;;;;;;;;;;;19.91;58.28;100873.44;5007726;28;4185;-66
2023/01/02 04:42:24;;;;;;;;;;;;;;;19.89;58.22;100864.72;5001622;28;4709;-66
2023/01/02 04:44:51;;;;;;;;;;;;;;;19.88;58.09;100875.47;5023717;28;3995;-66
2023/01/02 04:47:17;;;;;;;;;;;;;;;19.87;58.04;100873.97;5025237;28;4312;-66
2023/01/02 04:49:47;;;;;;;;;;;;;;;19.86;57.78;100883.25;5023949;28;4009;-66
2023/01/02 04:52:13;;;;;;;;;;;;;;;19.87;57.44;100884.75;5023009;28;4156;-66
2023/01/02 04:54:39;;;;;;;;;;;;;;;19.86;57.10;100878.25;5025584;28;4258;-66
2023/01/02 04:57:06;;;;;;;;;;;;;;;19.85;56.96;100871.00;5023751;28;4158;-66
2023/01/02 04:59:32;;;;;;;;;;;;;;;19.85;56.84;100881.75;5023602;28;4232;-66
2023/01/02 05:01:59;;;;;;;;;;;;;;;19.84;56.74;100883.16;5024370;28;4169;-66
2023/01/02 05:04:25;;;;;;;;;;;;;;;19.84;56.53;100880.28;5025836;28;5051;-66
2023/01/02 05:06:52;;;;;;;;;;;;;;;19.83;56.46;100882.41;5027223;28;4179;-66
2023/01/02 05:09:18;;;;;;;;;;;;;;;19.83;56.35;100890.28;5025171;28;4043;-67
2023/01/02 05:11:44;;;;;;;;;;;;;;;19.84;56.30;100886.03;5025116;28;4242;-66
2023/01/02 05:14:11;;;;;;;;;;;;;;;19.85;56.24;100887.50;5024965;28;4136;-67
2023/01/02 05:16:37;;;;;;;;;;;;;;;19.85;56.08;100879.63;5025080;28;4191;-66
2023/01/02 05:19:03;;;;;;;;;;;;;;;19.86;56.07;100871.75;5025014;28;5282;-67
2023/01/02 05:24:15;;;;;;;;;;;;;;;19.90;56.40;100879.81;5023650;28;4146;-66
2023/01/02 05:26:41;;;;;;;;;;;;;;;19.91;56.43;100878.47;5023344;28;6342;-66
2023/01/02 05:29:08;;;;;;;;;;;;;;;19.92;57.05;100883.53;5025286;28;5540;-67
2023/01/02 05:31:34;;;;;;;;;;;;;;;19.92;57.11;100880.66;5022918;28;5242;-66
2023/01/02 05:34:00;;;;;;;;;;;;;;;19.92;57.45;100883.53;5026823;28;4096;-69
2023/01/02 05:36:27;;;;;;;;;;;;;;;19.92;57.50;100868.44;5022540;28;4201;-66
2023/01/02 05:38:53;;;;;;;;;;;;;;;19.90;57.60;100866.19;5025149;28;4112;-66
2023/01/02 05:41:19;;;;;;;;;;;;;;;19.91;57.86;100867.69;5025247;28;5267;-66
2023/01/02 05:43:46;;;;;;;;;;;;;;;19.91;57.86;100879.19;5024233;28;4169;-66
2023/01/02 05:46:13;;;;;;;;;;;;;;;19.90;57.58;100866.19;5023179;28;4165;-66
2023/01/02 05:48:39;;;;;;;;;;;;;;;19.91;57.11;100872.72;5025874;28;4131;-67
2023/01/02 05:51:06;;;;;;;;;;;;;;;19.89;57.23;100870.47;5024444;28;4327;-67
2023/01/02 05:53:32;;;;;;;;;;;;;;;19.88;57.22;100869.72;5025366;28;5194;-66
2023/01/02 05:56:02;;;;;;;;;;;;;;;19.90;56.82;100862.59;5023977;28;4183;-65
2023/01/02 05:58:32;;;;;;;;;;;;;;;19.88;56.59;100874.72;5025643;28;4161;-64
2023/01/02 06:01:02;;;;;;;;;;;;;;;19.88;56.43;100868.97;5024394;28;4342;-65
2023/01/02 06:03:29;;;;;;;;;;;;;;;19.87;56.10;100870.38;5025376;28;4118;-65
2023/01/02 06:05:55;;;;;;;;;;;;;;;19.87;56.18;100870.38;5024489;28;4183;-66
2023/01/02 06:08:21;;;;;;;;;;;;;;;19.86;56.05;100857.41;5026105;28;5097;-66
2023/01/02 06:10:48;;;;;;;;;;;;;;;19.86;56.08;100866.03;5023505;28;5445;-66
2023/01/02 06:13:15;;;;;;;;;;;;;;;19.85;55.91;100865.25;5025314;28;4249;-65
2023/01/02 06:15:41;;;;;;;;;;;;;;;19.85;55.78;100871.00;5024102;28;4161;-65
2023/01/02 06:18:07;;;;;;;;;;;;;;;19.85;55.72;100864.53;5025045;28;4245;-65
2023/01/02 06:20:34;;;;;;;;;;;;;;;19.84;55.75;100857.28;5024978;28;5227;-65
2023/01/02 06:23:00;;;;;;;;;;;;;;;19.84;55.58;100860.91;5025287;28;4099;-65
2023/01/02 06:25:27;;;;;;;;;;;;;;;19.83;55.42;100868.03;5025577;28;5400;-65
2023/01/02 06:27:53;;;;;;;;;;;;;;;19.83;55.27;100867.28;5024872;28;5419;-65
2023/01/02 06:30:19;;;;;;;;;;;;;;;19.83;55.36;100861.53;5023461;28;5534;-65
2023/01/02 06:32:46;;;;;;;;;;;;;;;19.82;55.44;100875.19;5025729;28;4067;-65
2023/01/02 06:35:15;;;;;;;;;;;;;;;19.81;55.52;100875.81;5022604;28;4139;-65
2023/01/02 06:37:44;;;;;;;;;;;;;;;19.77;55.44;100862.00;5023935;28;5393;-65
2023/01/02 06:40:11;;;;;;;;;;;;;;;19.76;55.07;100874.13;5025063;28;4306;-65
2023/01/02 06:42:37;;;;;;;;;;;;;;;19.64;53.70;100874.97;5025598;28;4252;-79
2023/01/02 06:45:03;;;;;;;;;;;;;;;19.42;49.08;100871.75;5023259;28;5255;-69
2023/01/02 06:47:30;;;;;;;;;;;;;;;19.27;50.00;100866.69;5019861;28;5337;-74
2023/01/02 06:49:56;;;;;;;;;;;;;;;19.33;49.84;100881.31;5007473;28;4205;-74
2023/01/02 06:52:23;;;;;;;;;;;;;;;19.40;49.77;100874.53;5017993;28;4151;-74
2023/01/02 06:54:49;;;;;;;;;;;;;;;19.42;49.55;100879.59;5012198;28;4146;-80
2023/01/02 06:57:15;;;;;;;;;;;;;;;19.45;49.90;100870.47;5016413;28;4177;-77
2023/01/02 06:59:42;;;;;;;;;;;;;;;19.35;49.03;100872.81;5021291;28;4271;-74
2023/01/02 07:02:10;;;;;;;;;;;;;;;19.29;48.27;100880.38;5018587;28;4104;-75
2023/01/02 07:04:37;;;;;;;;;;;;;;;19.29;48.42;100880.38;5018573;28;4130;-74
2023/01/02 07:07:03;;;;;;;;;;;;;;;19.28;48.09;100884.63;5020889;28;5403;-75
2023/01/02 07:09:30;;;;;;;;;;;;;;;19.25;48.04;100881.66;5021823;28;4170;-77
2023/01/02 07:11:57;;;;;;;;;;;;;;;19.35;47.83;100883.56;5024628;28;5345;-79
2023/01/02 07:14:23;;;;;;;;;;;;;;;19.36;47.68;100896.53;5020825;28;4176;-76
2023/01/02 07:16:50;;;;;;;;;;;;;;;19.40;47.45;100899.59;5021092;28;4084;-78
2023/01/02 07:19:16;;;;;;;;;;;;;;;19.31;47.18;100894.84;5020438;28;4149;-74
2023/01/02 07:21:42;;;;;;;;;;;;;;;19.27;47.34;100883.16;5022517;28;4179;-74
2023/01/02 07:24:10;;;;;;;;;;;;;;;19.56;46.85;100891.84;5020531;28;4114;-78
2023/01/02 07:26:37;;;;;;;;;;;;;;;19.72;46.59;100896.91;5022449;28;4196;-77
2023/01/02 07:29:03;;;;;;;;;;;;;;;19.43;46.64;100896.22;5018435;28;4183;-76
2023/01/02 07:31:32;;;;;;;;;;;;;;;19.35;46.76;100907.28;5023265;28;4212;-76
2023/01/02 07:33:58;;;;;;;;;;;;;;;19.34;46.63;100897.19;5023003;28;4201;-78
2023/01/02 07:36:25;;;;;;;;;;;;;;;19.35;46.66;100895.03;5023470;28;4303;-77
2023/01/02 07:38:51;;;;;;;;;;;;;;;19.31;46.78;100894.84;5020231;28;4585;-76
2023/01/02 07:41:18;;;;;;;;;;;;;;;19.32;46.91;100890.59;5020400;28;4161;-75
2023/01/02 07:43:45;;;;;;;;;;;;;;;19.40;46.43;100906.13;5017683;28;4223;-79
2023/01/02 07:46:11;;;;;;;;;;;;;;;19.42;46.55;100902.59;5016700;28;4204;-78
2023/01/02 07:48:38;;;;;;;;;;;;;;;19.36;46.54;100908.03;5018728;28;4114;-76
2023/01/02 07:51:04;;;;;;;;;;;;;;;19.25;46.77;100903.88;5018114;28;4256;-76
2023/01/02 07:53:31;;;;;;;;;;;;;;;19.24;46.64;100914.63;5016638;28;4176;-72
2023/01/02 07:55:57;;;;;;;;;;;;;;;19.35;46.36;100903.66;5014822;28;4284;-71
2023/01/02 07:58:24;;;;;;;;;;;;;;;19.49;45.92;100915.13;5017991;28;4441;-72
2023/01/02 08:00:52;;;;;;;;;;;;;;;19.61;46.35;100910.00;5018786;28;4195;-71
2023/01/02 08:03:22;;;;;;;;;;;;;;;19.83;46.73;100913.25;5010694;28;5469;-72
2023/01/02 08:05:48;;;;;;;;;;;;;;;19.98;47.21;100903.22;5017930;28;4261;-72
2023/01/02 08:08:15;;;;;;;;;;;;;;;20.12;48.20;100906.03;5018491;28;4154;-77
2023/01/02 08:10:41;;;;;;;;;;;;;;;20.41;47.46;100899.47;5001888;28;4277;-76
2023/01/02 08:13:13;;;;;;;;;;;;;;;20.47;47.49;100894.75;5016952;28;5208;-76
2023/01/02 08:15:40;;;;;;;;;;;;;;;20.25;47.84;100908.84;5018759;28;4198;-76
2023/01/02 08:18:09;;;;;;;;;;;;;;;20.26;49.14;100906.72;5022627;28;5287;-76
2023/01/02 08:20:35;;;;;;;;;;;;;;;20.25;49.56;100913.88;5024183;28;4132;-74
2023/01/02 08:23:01;;;;;;;;;;;;;;;20.24;49.41;100909.50;5020528;28;5185;-76
2023/01/02 08:25:28;;;;;;;;;;;;;;;20.41;49.93;100906.00;5018462;28;4189;-76
2023/01/02 08:27:54;;;;;;;;;;;;;;;20.35;49.51;100897.09;5022389;28;4698;-82
2023/01/02 08:30:20;;;;;;;;;;;;;;;20.32;49.69;100909.88;5019074;28;4064;-81
2023/01/02 08:32:47;;;;;;;;;;;;;;;20.35;50.03;100907.84;5022306;28;5281;-86
2023/01/02 08:35:13;;;;;;;;;;;;;;;20.36;49.95;100915.81;5025426;28;4221;-84
2023/01/02 08:37:39;;;;;;;;;;;;;;;20.39;50.16;100908.78;5021216;28;5607;-88
2023/01/02 08:40:14;;;;;;;;;;;;;;;20.39;50.17;100908.78;5019248;28;4252;-84
2023/01/02 08:42:41;;;;;;;;;;;;;;;20.36;50.47;100904.31;5020604;28;4193;-76
2023/01/02 08:45:09;;;;;;;;;;;;;;;20.42;51.12;100913.22;5014975;28;6150;-75
2023/01/02 08:47:35;;;;;;;;;;;;;;;20.49;51.10;100929.38;5022651;28;4265;-77
2023/01/02 08:50:01;;;;;;;;;;;;;;;20.41;51.54;100922.50;5021551;28;4213;-76
2023/01/02 08:52:28;;;;;;;;;;;;;;;20.50;51.66;100912.84;5019398;28;5358;-72
2023/01/02 08:54:54;;;;;;;;;;;;;;;20.62;51.21;100930.00;5016362;28;4114;-77
2023/01/02 08:57:20;;;;;;;;;;;;;;;20.59;51.56;100923.41;5020922;28;4195;-75
2023/01/02 08:59:47;;;;;;;;;;;;;;;20.58;51.04;100924.78;5017087;28;4216;-74
2023/01/02 09:02:14;;;;;;;;;;;;;;;20.80;51.57;100933.72;5012829;28;5184;-75
2023/01/02 09:04:41;;;;;;;;;;;;;;;20.93;50.83;100935.72;5015689;28;5311;-75
2023/01/02 09:07:07;;;;;;;;;;;;;;;20.77;50.95;100932.13;5023007;28;4175;-75
2023/01/02 09:09:34;;;;;;;;;;;;;;;20.82;50.99;100925.16;5028862;28;4060;-76
2023/01/02 09:12:00;;;;;;;;;;;;;;;20.82;51.35;100936.69;5013563;28;4234;-77
2023/01/02 09:14:26;;;;;;;;;;;;;;;20.85;51.18;100929.63;5016571;28;4097;-74
2023/01/02 09:16:53;;;;;;;;;;;;;;;20.65;51.38;100922.94;5018882;28;4581;-75
2023/01/02 09:19:19;;;;;;;;;;;;;;;20.73;52.49;100934.06;5018342;28;4172;-80
2023/01/02 09:21:48;;;;;;;;;;;;;;;20.88;51.84;100936.94;5023936;28;4304;-79
2023/01/02 09:24:24;;;;;;;;;;;;;;;20.97;51.49;100934.44;5020805;28;4496;-73
2023/01/02 09:26:50;;;;;;;;;;;;;;;21.00;51.44;100956.16;5024525;28;4197;-74
2023/01/02 09:29:17;;;;;;;;;;;;;;;21.03;51.44;100932.59;5023358;28;4146;-76
2023/01/02 09:31:43;;;;;;;;;;;;;;;21.08;51.09;100933.50;5026628;28;4500;-73
2023/01/02 09:34:09;;;;;;;;;;;;;;;21.06;51.46;100939.16;5023394;28;6264;-75
2023/01/02 09:36:36;;;;;;;;;;;;;;;21.05;51.10;100929.03;5025683;28;4170;-73
2023/01/02 09:39:02;;;;;;;;;;;;;;;21.03;50.95;100931.84;5025552;28;4140;-75
2023/01/02 09:41:35;;;;;;;;;;;;;;;20.83;51.36;100926.66;5022400;28;4076;-72
2023/01/02 09:44:04;;;;;;;;;;;;;;;20.55;52.84;100913.78;5013549;28;5218;-72
2023/01/02 09:46:44;;;;;;;;;;;;;;;20.48;52.87;100915.66;4998010;28;4133;-72
2023/01/02 09:49:23;;;;;;;;;;;;;;;20.43;52.78;100908.97;5020152;28;4074;-73
2023/01/02 09:51:49;;;;;;;;;;;;;;;20.45;53.23;100917.69;5004203;28;4106;-73
2023/01/02 09:54:21;;;;;;;;;;;;;;;20.43;53.29;100914.72;5024894;28;4175;-72
2023/01/02 09:56:49;;;;;;;;;;;;;;;20.43;53.29;100914.72;5021257;28;4104;-73
2023/01/02 09:59:20;;;;;;;;;;;;;;;20.37;53.44;100911.56;4999006;28;4473;-73
2023/01/02 10:01:59;;;;;;;;;;;;;;;20.39;53.37;100916.66;5005527;28;4035;-73
2023/01/02 10:04:27;;;;;;;;;;;;;;;20.34;53.58;100912.84;5025793;28;5163;-72
2023/01/02 10:07:13;;;;;;;;;;;;;;;20.33;53.84;100905.59;5024698;28;4038;-73
2023/01/02 10:09:43;;;;;;;;;;;;;;;20.33;53.69;100899.84;4972806;28;4121;-73
2023/01/02 10:12:25;;;;;;;;;;;;;;;20.35;53.62;100890.59;4999293;28;4133;-72
2023/01/02 10:14:53;;;;;;;;;;;;;;;20.30;53.92;100889.66;5007275;28;4209;-72
2023/01/02 10:17:19;;;;;;;;;;;;;;;20.35;53.64;100884.84;5024334;28;4073;-73
2023/01/02 10:19:47;;;;;;;;;;;;;;;20.28;53.91;100886.69;5023572;28;4035;-72
2023/01/02 10:22:15;;;;;;;;;;;;;;;20.26;54.06;100880.84;5024065;28;4072;-72
2023/01/02 10:24:46;;;;;;;;;;;;;;;20.28;53.98;100881.66;5021771;28;4181;-72
2023/01/02 10:27:16;;;;;;;;;;;;;;;20.25;54.14;100877.22;5005708;28;5431;-71
2023/01/02 10:29:45;;;;;;;;;;;;;;;20.25;53.50;100888.72;5016352;28;4240;-88
2023/01/02 10:32:13;;;;;;;;;;;;;;;20.41;53.28;100877.25;5015793;28;4612;-79
2023/01/02 10:35:17;;;;;;;;;;;;;;;20.54;53.04;100869.16;5015054;28;5205;-72
2023/01/02 10:37:47;;;;;;;;;;;;;;;20.63;53.09;100873.91;4947202;28;4145;-77
2023/01/02 10:40:13;;;;;;;;;;;;;;;20.74;53.09;100878.75;4947533;28;4383;-81
2023/01/02 10:42:39;;;;;;;;;;;;;;;20.81;52.58;100882.63;4983303;28;4066;-77
2023/01/02 10:45:06;;;;;;;;;;;;;;;20.85;52.37;100883.56;4989869;28;4201;-77
2023/01/02 10:47:33;;;;;;;;;;;;;;;20.88;52.31;100870.75;5021728;28;4817;-75
2023/01/02 10:50:00;;;;;;;;;;;;;;;20.90;52.04;100867.94;5017913;28;3980;-78
2023/01/02 10:52:33;;;;;;;;;;;;;;;20.94;52.08;100873.16;5018716;28;5185;-76
2023/01/02 10:54:59;;;;;;;;;;;;;;;20.97;51.97;100877.59;5022235;28;4053;-76
2023/01/02 10:57:37;;;;;;;;;;;;;;;20.99;51.96;100879.84;5001343;28;4017;-77
2023/01/02 11:00:04;;;;;;;;;;;;;;;21.02;51.87;100878.53;5018480;28;4142;-78
2023/01/02 11:02:36;;;;;;;;;;;;;;;21.07;51.66;100874.41;5021219;28;4177;-79
2023/01/02 11:05:03;;;;;;;;;;;;;;;21.11;51.55;100874.59;5018262;28;4139;-88
2023/01/02 11:07:33;;;;;;;;;;;;;;;21.09;51.54;100877.38;5015810;28;4022;-79
2023/01/02 11:10:00;;;;;;;;;;;;;;;21.09;51.66;100865.88;5013722;28;4191;-79
2023/01/02 11:12:26;;;;;;;;;;;;;;;21.20;51.46;100879.31;5012666;28;5473;-81
2023/01/02 11:15:01;;;;;;;;;;;;;;;21.22;51.66;100876.53;5018548;28;3953;-80
2023/01/02 11:17:27;;;;;;;;;;;;;;;21.25;51.39;100869.44;4984801;28;4071;-79
2023/01/02 11:19:54;;;;;;;;;;;;;;;21.25;51.32;100863.69;5001174;28;4210;-78
2023/01/02 11:22:31;;;;;;;;;;;;;;;21.31;51.25;100861.09;4994330;28;4355;-82
2023/01/02 11:24:58;;;;;;;;;;;;;;;21.37;51.10;100859.84;4998670;28;4187;-81
2023/01/02 11:27:30;;;;;;;;;;;;;;;21.39;51.13;100868.56;4985762;28;5384;-83
2023/01/02 11:29:56;;;;;;;;;;;;;;;21.41;51.10;100862.94;4998219;28;4151;-79
2023/01/02 11:32:37;;;;;;;;;;;;;;;21.45;51.15;100877.50;4984548;28;4231;-83
2023/01/02 11:35:04;;;;;;;;;;;;;;;21.47;51.02;100877.59;5002348;28;4244;-85
2023/01/02 11:37:30;;;;;;;;;;;;;;;21.47;51.09;100871.84;5000728;28;4060;-79
2023/01/02 11:39:58;;;;;;;;;;;;;;;21.38;51.35;100872.88;5003050;28;4120;-78
2023/01/02 11:45:20;;;;;;;;;;;;;;;21.25;52.02;100866.56;4989258;28;5183;-73
2023/01/02 11:47:47;;;;;;;;;;;;;;;21.26;52.16;100868.06;4997844;28;4185;-75
2023/01/02 11:50:26;;;;;;;;;;;;;;;21.42;52.04;100876.69;4990993;28;5138;-76
2023/01/02 11:55:52;;;;;;;;;;;;;;;21.54;52.00;100879.34;5000522;28;4129;-81
2023/01/02 11:58:30;;;;;;;;;;;;;;;21.62;51.75;100873.16;5002179;28;4108;-82
2023/01/02 12:01:02;;;;;;;;;;;;;;;21.66;51.56;100871.19;5011173;28;4128;-82
2023/01/02 12:03:29;;;;;;;;;;;;;;;21.63;51.75;100866.75;5001923;28;4138;-83
2023/01/02 12:06:08;;;;;;;;;;;;;;;21.57;51.74;100863.59;4997824;28;4056;-80
2023/01/02 12:08:53;;;;;;;;;;;;;;;21.57;52.07;100863.59;5000879;28;4154;-81
2023/01/02 12:11:40;;;;;;;;;;;;;;;21.59;51.92;100865.84;5007992;28;4121;-78
2023/01/02 12:14:12;;;;;;;;;;;;;;;21.56;51.96;100867.91;5004106;28;4150;-78
2023/01/02 12:16:57;;;;;;;;;;;;;;;21.59;51.91;100866.56;5000236;28;4095;-80
2023/01/02 12:19:27;;;;;;;;;;;;;;;21.61;51.97;100866.66;5001641;28;4179;-86
2023/01/02 12:22:00;;;;;;;;;;;;;;;21.63;52.31;100868.91;4996233;28;4398;-82
2023/01/02 12:24:43;;;;;;;;;;;;;;;21.66;52.30;100876.94;5005338;28;4159;-75
2023/01/02 12:27:12;;;;;;;;;;;;;;;21.66;51.89;100879.84;4996933;28;5617;-74
2023/01/02 12:29:42;;;;;;;;;;;;;;;21.62;52.44;100887.56;5002265;28;4218;-73
2023/01/02 12:32:28;;;;;;;;;;;;;;;21.64;52.12;100884.78;5001701;28;4117;-73
2023/01/02 12:35:13;;;;;;;;;;;;;;;21.61;52.34;100875.31;4996757;28;5385;-73
2023/01/02 12:37:42;;;;;;;;;;;;;;;21.57;52.69;100889.53;5020428;28;4185;-73
2023/01/02 12:40:12;;;;;;;;;;;;;;;21.60;52.46;100893.25;5022392;28;5170;-73
2023/01/02 12:42:49;;;;;;;;;;;;;;;21.64;52.78;100884.78;5021986;28;4102;-81
2023/01/02 12:45:19;;;;;;;;;;;;;;;21.61;52.60;100886.84;5003426;28;4124;-79
2023/01/02 12:48:04;;;;;;;;;;;;;;;21.66;52.51;100885.59;5000425;28;4173;-80
2023/01/02 12:50:42;;;;;;;;;;;;;;;21.70;52.27;100894.41;5022411;28;4214;-74
2023/01/02 12:53:32;;;;;;;;;;;;;;;21.58;52.14;100896.78;5001884;28;5342;-76
2023/01/02 12:56:05;;;;;;;;;;;;;;;21.51;52.53;100904.44;5009388;28;6394;-76
2023/01/02 12:58:41;;;;;;;;;;;;;;;21.48;52.54;100899.25;5022981;28;5479;-77
2023/01/02 13:01:10;;;;;;;;;;;;;;;21.10;52.23;100899.03;5000161;28;4116;-72
2023/01/02 13:03:42;;;;;;;;;;;;;;;21.03;52.53;100900.19;5002837;28;4231;-84
2023/01/02 13:06:10;;;;;;;;;;;;;;;21.19;52.33;100888.59;5006956;28;4571;-79
2023/01/02 13:08:56;;;;;;;;;;;;;;;21.30;52.44;100902.03;5003638;28;4183;-79
2023/01/02 13:11:25;;;;;;;;;;;;;;;21.30;52.45;100904.94;5020830;28;4047;-78
2023/01/02 13:13:51;;;;;;;;;;;;;;;21.32;52.31;100891.34;5006012;28;5409;-76